Earls Colne, United Kingdom
Current Conditions -  °F | °C
As of 11:50 PM on Sunday 21 Dec 2014 (Local Time) from EGUW Reporting Station
Overcast Overcast  
Wind Chill: 52°   Ceiling: 1300
Heat Index: 52°   Visibility: 6mi
Dew Point: 48°   Wind: 24mph
Humidity: 88%   Direction: 240°WSW
Pressure: 30.03"   Gusts: NA
Location:  51.93°N, 0.7°E
Report Text: EGUW 212350Z AUTO 24021KT 9999 OVC013/// 11/09 Q1017
Loading
Personal Weather Stations






























Interactive Weather Map New forecast layout! Learn more

10-Day Weather Forecast

Advertisements
Track Severe Weather on mobile